createdAt,value
2018-09-22T00:02:19.336Z,99.91
2018-09-22T00:04:48.060Z,100.00
2018-09-22T00:07:17.440Z,100.00
2018-09-22T00:09:46.314Z,100.00
2018-09-22T00:12:15.264Z,100.00
2018-09-22T00:14:44.205Z,100.00
2018-09-22T00:17:13.069Z,100.00
2018-09-22T00:19:42.164Z,100.00
2018-09-22T00:22:17.138Z,100.00
2018-09-22T00:24:45.860Z,100.00
2018-09-22T00:27:14.415Z,100.00
2018-09-22T00:29:43.048Z,100.00
2018-09-22T00:32:11.786Z,100.00
2018-09-22T00:34:40.328Z,100.00
2018-09-22T00:37:08.905Z,100.00
2018-09-22T00:39:37.631Z,100.00
2018-09-22T00:42:06.990Z,100.00
2018-09-22T00:44:35.701Z,100.00
2018-09-22T00:47:04.526Z,100.00
2018-09-22T00:49:33.225Z,100.00
2018-09-22T00:52:02.365Z,100.00
2018-09-22T00:54:31.085Z,100.00
2018-09-22T00:56:59.662Z,100.00
2018-09-22T00:59:28.737Z,99.62
2018-09-22T01:01:58.437Z,99.47
2018-09-22T01:04:27.028Z,98.91
2018-09-22T01:06:55.775Z,99.17
2018-09-22T01:09:24.462Z,99.57
2018-09-22T01:11:53.194Z,99.58
2018-09-22T01:14:21.778Z,99.71
2018-09-22T01:16:50.644Z,99.44
2018-09-22T01:19:19.181Z,99.80
2018-09-22T01:21:48.007Z,99.53
2018-09-22T01:24:16.800Z,98.55
2018-09-22T01:26:45.329Z,98.20
2018-09-22T01:29:16.319Z,97.79
2018-09-22T01:31:45.600Z,97.96
2018-09-22T01:34:14.341Z,97.96
2018-09-22T01:36:43.997Z,98.38
2018-09-22T01:39:13.816Z,98.45
2018-09-22T01:41:42.637Z,97.98
2018-09-22T01:44:11.574Z,97.90
2018-09-22T01:46:40.231Z,97.68
2018-09-22T01:49:08.776Z,98.02
2018-09-22T01:51:37.335Z,98.15
2018-09-22T01:54:06.219Z,98.42
2018-09-22T01:56:35.015Z,97.59
2018-09-22T01:59:04.624Z,97.76
2018-09-22T02:01:33.304Z,97.94
2018-09-22T02:04:01.935Z,98.41
2018-09-22T02:06:30.674Z,98.21
2018-09-22T02:09:00.421Z,97.61
2018-09-22T02:11:29.058Z,97.50
2018-09-22T02:13:57.669Z,97.78
2018-09-22T02:16:26.364Z,97.99
2018-09-22T02:18:54.845Z,97.64
2018-09-22T02:21:23.533Z,97.24
2018-09-22T02:23:52.161Z,97.11
2018-09-22T02:26:20.831Z,96.41
2018-09-22T02:28:49.457Z,95.94
2018-09-22T02:31:18.203Z,95.50
2018-09-22T02:33:46.765Z,95.32
2018-09-22T02:36:15.337Z,94.65
2018-09-22T02:38:44.070Z,94.97
2018-09-22T02:41:12.597Z,94.61
2018-09-22T02:43:41.225Z,95.00
2018-09-22T02:46:09.947Z,94.88
2018-09-22T02:48:38.661Z,94.06
2018-09-22T02:51:08.029Z,93.67
2018-09-22T02:53:36.835Z,93.94
2018-09-22T02:56:05.391Z,93.99
2018-09-22T02:58:34.522Z,93.41
2018-09-22T03:01:03.730Z,92.91
2018-09-22T03:03:32.461Z,93.36
2018-09-22T03:06:01.211Z,93.69
2018-09-22T03:08:30.001Z,93.70
2018-09-22T03:10:58.582Z,92.87
2018-09-22T03:13:28.224Z,93.49
2018-09-22T03:15:56.977Z,93.44
2018-09-22T03:18:25.569Z,92.77
2018-09-22T03:20:54.107Z,92.29
2018-09-22T03:23:22.875Z,92.66
2018-09-22T03:25:51.741Z,92.53
2018-09-22T03:28:20.332Z,92.80
2018-09-22T03:30:48.923Z,92.33
2018-09-22T03:33:17.457Z,92.70
2018-09-22T03:35:46.043Z,93.14
2018-09-22T03:38:15.315Z,93.05
2018-09-22T03:40:43.903Z,92.70
2018-09-22T03:43:12.577Z,92.51
2018-09-22T03:45:41.155Z,92.85
2018-09-22T03:48:09.705Z,92.62
2018-09-22T03:50:38.235Z,92.60
2018-09-22T03:53:06.873Z,92.51
2018-09-22T03:55:35.465Z,92.09
2018-09-22T03:58:04.042Z,92.20
2018-09-22T04:00:32.798Z,92.82
2018-09-22T04:03:01.275Z,92.96
2018-09-22T04:05:29.776Z,92.93
2018-09-22T04:07:58.561Z,93.36
2018-09-22T04:10:27.094Z,93.37
2018-09-22T04:12:55.679Z,93.58
2018-09-22T04:15:24.407Z,93.89
2018-09-22T04:17:52.922Z,94.31
2018-09-22T04:20:21.645Z,94.37
2018-09-22T04:22:50.813Z,94.43
2018-09-22T04:25:19.346Z,93.75
2018-09-22T04:27:47.877Z,93.16
2018-09-22T04:30:16.579Z,93.19
2018-09-22T04:32:45.221Z,92.84
2018-09-22T04:35:13.714Z,91.68
2018-09-22T04:37:42.430Z,90.67
2018-09-22T04:40:11.006Z,90.62
2018-09-22T04:42:39.592Z,90.36
2018-09-22T04:45:08.392Z,89.68
2018-09-22T04:47:36.953Z,89.41
2018-09-22T04:50:05.528Z,88.57
2018-09-22T04:52:34.384Z,87.94
2018-09-22T04:55:03.192Z,87.82
2018-09-22T04:57:32.226Z,87.47
2018-09-22T05:00:01.050Z,87.49
2018-09-22T05:02:29.714Z,86.56
2018-09-22T05:04:58.276Z,86.15
2018-09-22T05:07:27.065Z,86.17
2018-09-22T05:10:02.281Z,85.80
2018-09-22T05:12:31.581Z,86.04
2018-09-22T05:15:00.213Z,85.63
2018-09-22T05:17:29.181Z,85.73
2018-09-22T05:19:57.937Z,85.62
2018-09-22T05:22:26.500Z,85.81
2018-09-22T05:24:55.096Z,86.09
2018-09-22T05:27:23.941Z,85.73
2018-09-22T05:29:52.705Z,85.07
2018-09-22T05:32:21.425Z,84.61
2018-09-22T05:34:50.229Z,83.87
2018-09-22T05:37:19.115Z,83.65
2018-09-22T05:39:47.731Z,83.49
2018-09-22T05:42:17.694Z,83.26
2018-09-22T05:44:46.385Z,83.25
2018-09-22T05:47:15.442Z,83.23
2018-09-22T05:49:45.304Z,82.99
2018-09-22T05:52:13.801Z,83.17
2018-09-22T05:54:42.665Z,82.60
2018-09-22T05:57:11.795Z,82.23
2018-09-22T05:59:40.515Z,82.51
2018-09-22T06:02:09.363Z,81.50
2018-09-22T06:04:38.077Z,81.16
2018-09-22T06:07:06.659Z,81.04
2018-09-22T06:09:35.360Z,80.40
2018-09-22T06:12:04.035Z,80.40
2018-09-22T06:14:32.917Z,80.10
2018-09-22T06:17:01.678Z,80.10
2018-09-22T06:19:30.830Z,79.89
2018-09-22T06:21:59.570Z,79.62
2018-09-22T06:24:28.528Z,78.75
2018-09-22T06:26:58.427Z,77.78
2018-09-22T06:29:27.190Z,76.94
2018-09-22T06:31:55.826Z,76.78
2018-09-22T06:34:24.836Z,76.29
2018-09-22T06:36:54.497Z,76.01
2018-09-22T06:39:23.076Z,74.34
2018-09-22T06:41:53.022Z,75.50
2018-09-22T06:44:21.569Z,73.24
2018-09-22T06:46:50.210Z,72.15
2018-09-22T06:49:18.978Z,71.83
2018-09-22T06:51:47.519Z,70.86
2018-09-22T06:54:17.285Z,70.22
2018-09-22T06:56:46.094Z,68.79
2018-09-22T06:59:14.713Z,68.46
2018-09-22T07:01:43.344Z,68.39
2018-09-22T07:04:12.162Z,68.98
2018-09-22T07:06:41.842Z,68.35
2018-09-22T07:09:10.481Z,66.12
2018-09-22T07:11:39.373Z,67.69
2018-09-22T07:14:08.096Z,67.24
2018-09-22T07:16:36.725Z,66.25
2018-09-22T07:19:05.610Z,66.12
2018-09-22T07:21:39.501Z,68.93
2018-09-22T07:24:08.218Z,66.94
2018-09-22T07:26:36.761Z,66.11
2018-09-22T07:29:05.260Z,65.64
2018-09-22T07:31:34.116Z,65.41
2018-09-22T07:34:02.731Z,64.49
2018-09-22T07:36:31.422Z,66.36
2018-09-22T07:39:00.253Z,65.61
2018-09-22T07:41:28.856Z,64.85
2018-09-22T07:43:57.618Z,65.56
2018-09-22T07:46:26.546Z,64.66
2018-09-22T07:48:55.117Z,65.37
2018-09-22T07:51:23.678Z,64.11
2018-09-22T07:53:53.435Z,64.85
2018-09-22T07:56:23.040Z,63.58
2018-09-22T07:58:51.890Z,63.06
2018-09-22T08:01:20.626Z,63.58
2018-09-22T08:03:49.195Z,61.89
2018-09-22T08:06:17.769Z,64.19
2018-09-22T08:08:47.345Z,62.09
2018-09-22T08:11:16.102Z,63.22
2018-09-22T08:13:44.651Z,61.31
2018-09-22T08:16:13.386Z,63.47
2018-09-22T08:18:41.895Z,61.46
2018-09-22T08:21:10.583Z,60.84
2018-09-22T08:23:40.174Z,62.05
2018-09-22T08:26:09.228Z,60.09
2018-09-22T08:28:37.815Z,59.84
2018-09-22T08:31:06.789Z,60.89
2018-09-22T08:33:35.489Z,60.68
2018-09-22T08:36:04.221Z,58.54
2018-09-22T08:38:32.931Z,59.01
2018-09-22T08:41:01.514Z,58.44
2018-09-22T08:43:30.033Z,58.47
2018-09-22T08:45:59.445Z,57.53
2018-09-22T08:48:28.093Z,58.58
2018-09-22T08:50:56.777Z,59.43
2018-09-22T08:53:25.419Z,58.20
2018-09-22T08:55:54.018Z,59.43
2018-09-22T08:58:22.773Z,59.12
2018-09-22T09:00:51.781Z,60.16
2018-09-22T09:03:21.186Z,60.18
2018-09-22T09:05:49.920Z,60.27
2018-09-22T09:08:18.869Z,60.80
2018-09-22T09:10:49.150Z,59.87
2018-09-22T09:13:18.168Z,59.74
2018-09-22T09:15:47.212Z,60.26
2018-09-22T09:18:15.828Z,59.96
2018-09-22T09:20:45.591Z,60.61
2018-09-22T09:23:14.282Z,60.09
2018-09-22T09:25:42.802Z,59.56
2018-09-22T09:28:12.914Z,59.84
2018-09-22T09:30:41.991Z,58.81
2018-09-22T09:33:12.237Z,58.20
2018-09-22T09:35:40.998Z,58.68
2018-09-22T09:38:09.916Z,59.81
2018-09-22T09:40:38.535Z,58.32
2018-09-22T09:43:07.700Z,59.16
2018-09-22T09:45:36.677Z,56.70
2018-09-22T09:48:05.178Z,56.96
2018-09-22T09:50:34.053Z,58.31
2018-09-22T09:53:04.230Z,57.77
2018-09-22T09:55:32.834Z,57.94
2018-09-22T09:58:02.482Z,57.10
2018-09-22T10:00:36.495Z,56.03
2018-09-22T10:03:05.081Z,54.24
2018-09-22T10:05:33.735Z,52.37
2018-09-22T10:08:02.391Z,53.38
2018-09-22T10:10:30.995Z,53.10
2018-09-22T10:12:59.721Z,54.43
2018-09-22T10:15:28.282Z,55.18
2018-09-22T10:17:56.967Z,55.18
2018-09-22T10:20:25.678Z,52.34
2018-09-22T10:22:54.292Z,52.12
2018-09-22T10:25:22.942Z,52.33
2018-09-22T10:27:52.607Z,50.99
2018-09-22T10:30:21.214Z,51.84
2018-09-22T10:32:51.031Z,52.10
2018-09-22T10:35:19.752Z,52.62
2018-09-22T10:37:49.289Z,53.19
2018-09-22T10:40:17.947Z,54.30
2018-09-22T10:42:46.694Z,54.30
2018-09-22T10:45:15.334Z,54.12
2018-09-22T10:47:44.018Z,53.69
2018-09-22T10:50:13.581Z,51.92
2018-09-22T10:52:42.184Z,52.36
2018-09-22T10:55:10.757Z,50.10
2018-09-22T10:57:39.246Z,49.83
2018-09-22T11:00:07.995Z,49.47
2018-09-22T11:02:36.533Z,47.54
2018-09-22T11:05:05.487Z,47.24
2018-09-22T11:07:34.065Z,48.08
2018-09-22T11:10:02.719Z,47.94
2018-09-22T11:12:31.296Z,47.77
2018-09-22T11:15:01.320Z,46.64
2018-09-22T11:17:30.377Z,47.58
2018-09-22T11:19:59.304Z,47.65
2018-09-22T11:22:27.941Z,48.68
2018-09-22T11:24:56.625Z,49.10
2018-09-22T11:27:25.279Z,50.14
2018-09-22T11:29:54.009Z,48.82
2018-09-22T11:32:23.603Z,48.35
2018-09-22T11:34:52.436Z,47.06
2018-09-22T11:37:21.721Z,47.05
2018-09-22T11:39:50.313Z,45.09
2018-09-22T11:42:18.903Z,47.96
2018-09-22T11:44:47.514Z,48.10
2018-09-22T11:47:16.132Z,46.42
2018-09-22T11:49:44.764Z,46.66
2018-09-22T11:52:13.381Z,47.93
2018-09-22T11:54:42.846Z,47.51
2018-09-22T11:57:11.534Z,46.66
2018-09-22T11:59:40.139Z,45.46
2018-09-22T12:02:08.775Z,47.50
2018-09-22T12:04:37.500Z,46.42
2018-09-22T12:07:06.185Z,47.69
2018-09-22T12:09:34.894Z,47.05
2018-09-22T12:12:03.576Z,45.62
2018-09-22T12:14:32.123Z,44.07
2018-09-22T12:17:00.674Z,42.44
2018-09-22T12:19:29.270Z,42.97
2018-09-22T12:21:57.934Z,43.32
2018-09-22T12:24:26.589Z,42.65
2018-09-22T12:26:55.159Z,40.77
2018-09-22T12:29:24.337Z,41.68
2018-09-22T12:31:53.047Z,42.79
2018-09-22T12:34:21.703Z,43.33
2018-09-22T12:36:50.393Z,43.64
2018-09-22T12:39:19.981Z,43.13
2018-09-22T12:41:48.682Z,44.19
2018-09-22T12:44:17.470Z,41.28
2018-09-22T12:46:46.083Z,39.44
2018-09-22T12:49:14.691Z,40.84
2018-09-22T12:51:43.345Z,41.21
2018-09-22T12:54:11.966Z,43.28
2018-09-22T12:56:40.629Z,44.67
2018-09-22T12:59:09.550Z,46.48
2018-09-22T13:01:38.214Z,47.12
2018-09-22T13:04:06.847Z,47.25
2018-09-22T13:06:35.453Z,46.85
2018-09-22T13:09:05.280Z,47.08
2018-09-22T13:11:36.238Z,47.04
2018-09-22T13:14:05.306Z,45.48
2018-09-22T13:16:34.237Z,43.17
2018-09-22T13:19:02.966Z,42.21
2018-09-22T13:21:31.549Z,42.51
2018-09-22T13:24:00.174Z,45.20
2018-09-22T13:26:28.878Z,45.55
2018-09-22T13:28:57.553Z,44.76
2018-09-22T13:31:26.266Z,45.75
2018-09-22T13:33:54.935Z,46.12
2018-09-22T13:36:23.711Z,46.07
2018-09-22T13:38:52.233Z,45.21
2018-09-22T13:41:20.969Z,42.27
2018-09-22T13:43:49.616Z,41.54
2018-09-22T13:46:18.491Z,42.22
2018-09-22T13:48:47.236Z,45.11
2018-09-22T13:51:15.955Z,46.19
2018-09-22T13:53:44.545Z,46.38
2018-09-22T13:56:13.202Z,44.59
2018-09-22T13:58:41.863Z,41.13
2018-09-22T14:01:11.498Z,41.95
2018-09-22T14:03:41.411Z,42.85
2018-09-22T14:06:10.893Z,45.03
2018-09-22T14:08:39.601Z,43.83
2018-09-22T14:11:08.351Z,42.52
2018-09-22T14:13:36.977Z,43.31
2018-09-22T14:16:05.572Z,42.96
2018-09-22T14:18:34.942Z,43.10
2018-09-22T14:21:03.584Z,42.28
2018-09-22T14:23:33.307Z,42.61
2018-09-22T14:26:02.042Z,43.02
2018-09-22T14:28:30.750Z,43.13
2018-09-22T14:30:59.557Z,44.98
2018-09-22T14:33:28.380Z,45.61
2018-09-22T14:35:57.013Z,46.29
2018-09-22T14:38:25.638Z,46.76
2018-09-22T14:40:54.373Z,46.67
2018-09-22T14:43:23.125Z,46.92
2018-09-22T14:45:51.816Z,48.45
2018-09-22T14:48:21.159Z,47.84
2018-09-22T14:50:50.584Z,48.18
2018-09-22T14:53:19.900Z,48.87
2018-09-22T14:55:48.672Z,49.98
2018-09-22T14:58:17.404Z,48.53
2018-09-22T15:00:46.052Z,48.36
2018-09-22T15:03:14.837Z,48.23
2018-09-22T15:05:43.335Z,49.02
2018-09-22T15:08:12.090Z,48.74
2018-09-22T15:10:40.954Z,48.53
2018-09-22T15:13:09.573Z,48.97
2018-09-22T15:15:38.132Z,49.21
2018-09-22T15:18:06.992Z,49.98
2018-09-22T15:20:36.125Z,49.76
2018-09-22T15:23:04.833Z,50.75
2018-09-22T15:25:33.561Z,51.35
2018-09-22T15:28:02.202Z,51.40
2018-09-22T15:30:31.881Z,52.09
2018-09-22T15:33:00.612Z,52.08
2018-09-22T15:35:30.384Z,51.99
2018-09-22T15:37:58.904Z,53.38
2018-09-22T15:40:27.675Z,53.99
2018-09-22T15:42:56.591Z,52.55
2018-09-22T15:45:26.092Z,53.54
2018-09-22T15:47:54.802Z,54.19
2018-09-22T15:50:23.383Z,53.81
2018-09-22T15:52:52.021Z,54.59
2018-09-22T15:55:20.731Z,54.80
2018-09-22T15:57:49.521Z,55.59
2018-09-22T16:00:18.179Z,56.31
2018-09-22T16:02:46.990Z,55.95
2018-09-22T16:05:15.537Z,56.26
2018-09-22T16:07:44.107Z,56.28
2018-09-22T16:10:13.476Z,55.98
2018-09-22T16:12:41.994Z,56.17
2018-09-22T16:15:11.717Z,56.27
2018-09-22T16:17:40.526Z,56.57
2018-09-22T16:20:10.213Z,56.77
2018-09-22T16:22:38.911Z,56.60
2018-09-22T16:25:07.879Z,56.63
2018-09-22T16:27:36.856Z,56.49
2018-09-22T16:30:05.915Z,56.86
2018-09-22T16:32:34.669Z,57.15
2018-09-22T16:35:03.500Z,57.20
2018-09-22T16:37:32.260Z,57.47
2018-09-22T16:40:01.142Z,57.86
2018-09-22T16:42:30.726Z,58.29
2018-09-22T16:44:59.250Z,59.15
2018-09-22T16:47:27.918Z,59.42
2018-09-22T16:49:56.556Z,59.41
2018-09-22T16:53:31.825Z,59.26
2018-09-22T16:56:00.693Z,59.27
2018-09-22T16:58:30.565Z,59.43
2018-09-22T17:00:59.209Z,59.86
2018-09-22T17:03:27.843Z,59.96
2018-09-22T17:05:56.528Z,60.46
2018-09-22T17:08:25.385Z,60.24
2018-09-22T17:10:54.035Z,60.14
2018-09-22T17:13:22.612Z,60.28
2018-09-22T17:15:51.424Z,59.97
2018-09-22T17:18:19.988Z,59.74
2018-09-22T17:23:24.103Z,59.26
2018-09-22T17:25:52.784Z,58.90
2018-09-22T17:28:21.327Z,59.19
2018-09-22T17:30:50.038Z,58.79
2018-09-22T17:33:18.698Z,59.02
2018-09-22T17:35:47.729Z,59.00
2018-09-22T17:38:16.746Z,59.39
2018-09-22T17:40:45.536Z,59.60
2018-09-22T17:43:14.066Z,59.86
2018-09-22T17:45:42.808Z,60.21
2018-09-22T17:48:12.435Z,60.39
2018-09-22T17:50:42.332Z,60.46
2018-09-22T17:53:11.018Z,60.36
2018-09-22T17:55:39.716Z,60.39
2018-09-22T17:58:08.324Z,60.65
2018-09-22T18:00:37.218Z,60.39
2018-09-22T18:03:06.770Z,60.63
2018-09-22T18:05:35.341Z,60.06
2018-09-22T18:08:04.074Z,60.20
2018-09-22T18:10:32.803Z,59.81
2018-09-22T18:13:01.493Z,60.26
2018-09-22T18:15:30.773Z,60.68
2018-09-22T18:17:59.406Z,60.94
2018-09-22T18:20:28.197Z,61.28
2018-09-22T18:22:57.908Z,61.52
2018-09-22T18:25:27.513Z,61.43
2018-09-22T18:27:56.111Z,61.37
2018-09-22T18:30:24.746Z,61.15
2018-09-22T18:32:53.345Z,61.23
2018-09-22T18:35:21.943Z,60.91
2018-09-22T18:37:50.483Z,61.69
2018-09-22T18:40:20.100Z,61.89
2018-09-22T18:42:48.811Z,62.57
2018-09-22T18:45:17.400Z,62.91
2018-09-22T18:47:45.932Z,63.16
2018-09-22T18:50:14.523Z,63.00
2018-09-22T18:52:43.258Z,63.11
2018-09-22T18:55:11.844Z,62.92
2018-09-22T18:57:40.391Z,63.04
2018-09-22T19:00:09.266Z,62.90
2018-09-22T19:02:37.881Z,62.86
2018-09-22T19:05:06.521Z,62.63
2018-09-22T19:07:35.217Z,62.75
2018-09-22T19:10:03.892Z,62.80
2018-09-22T19:12:32.707Z,63.31
2018-09-22T19:15:11.717Z,63.21
2018-09-22T19:17:48.218Z,63.72
2018-09-22T19:20:20.185Z,63.97
2018-09-22T19:22:58.533Z,64.32
2018-09-22T19:25:29.468Z,64.36
2018-09-22T19:28:07.536Z,64.44
2018-09-22T19:30:46.161Z,64.69
2018-09-22T19:33:25.293Z,65.09
2018-09-22T19:35:57.233Z,65.33
2018-09-22T19:38:29.997Z,65.46
2018-09-22T19:41:02.205Z,65.29
2018-09-22T19:43:36.053Z,65.59
2018-09-22T19:46:08.524Z,65.41
2018-09-22T19:48:47.063Z,65.74
2018-09-22T19:51:18.970Z,66.08
2018-09-22T19:53:48.897Z,65.72
2018-09-22T19:56:17.989Z,66.01
2018-09-22T19:58:46.680Z,66.00
2018-09-22T20:01:15.624Z,66.09
2018-09-22T20:03:44.355Z,66.45
2018-09-22T20:06:13.171Z,66.80
2018-09-22T20:08:44.885Z,67.28
2018-09-22T20:11:13.508Z,67.53
2018-09-22T20:13:42.260Z,67.80
2018-09-22T20:16:10.940Z,67.42
2018-09-22T20:18:39.438Z,67.81
2018-09-22T20:21:08.209Z,67.90
2018-09-22T20:23:36.714Z,67.63
2018-09-22T20:26:05.263Z,67.69
2018-09-22T20:28:34.101Z,67.41
2018-09-22T20:31:02.575Z,67.83
2018-09-22T20:33:31.129Z,67.78
2018-09-22T20:35:59.783Z,67.98
2018-09-22T20:38:29.761Z,68.17
2018-09-22T20:40:58.265Z,68.09
2018-09-22T20:43:26.978Z,68.51
2018-09-22T20:45:55.584Z,69.02
2018-09-22T20:48:24.981Z,68.91
2018-09-22T20:50:53.857Z,69.01
2018-09-22T20:53:22.326Z,69.01
2018-09-22T20:55:50.913Z,69.08
2018-09-22T20:58:20.184Z,69.28
2018-09-22T21:00:48.875Z,69.25
2018-09-22T21:03:17.536Z,69.63
2018-09-22T21:05:46.408Z,69.19
2018-09-22T21:08:15.896Z,69.37
2018-09-22T21:10:44.782Z,69.52
2018-09-22T21:13:13.500Z,69.60
2018-09-22T21:15:42.046Z,70.11
2018-09-22T21:18:10.600Z,70.28
2018-09-22T21:20:45.695Z,70.82
2018-09-22T21:23:14.260Z,70.49
2018-09-22T21:25:43.452Z,70.81
2018-09-22T21:28:12.403Z,70.50
2018-09-22T21:30:41.175Z,70.50
2018-09-22T21:33:10.035Z,70.55
2018-09-22T21:35:39.481Z,71.31
2018-09-22T21:38:08.389Z,71.27
2018-09-22T21:40:37.011Z,71.18
2018-09-22T21:43:07.004Z,71.50
2018-09-22T21:45:35.584Z,71.22
2018-09-22T21:48:04.632Z,71.14
2018-09-22T21:50:34.294Z,71.05
2018-09-22T21:53:02.900Z,70.74
2018-09-22T21:55:31.406Z,70.90
2018-09-22T21:58:00.048Z,71.17
2018-09-22T22:00:28.609Z,71.03
2018-09-22T22:02:57.408Z,70.89
2018-09-22T22:05:26.130Z,71.08
2018-09-22T22:07:54.657Z,71.28
2018-09-22T22:10:23.425Z,71.18
2018-09-22T22:12:52.386Z,71.50
2018-09-22T22:15:21.832Z,71.54
2018-09-22T22:17:50.433Z,71.13
2018-09-22T22:20:20.520Z,71.17
2018-09-22T22:22:48.957Z,71.65
2018-09-22T22:25:17.781Z,71.41
2018-09-22T22:27:47.109Z,71.30
2018-09-22T22:30:15.677Z,71.57
2018-09-22T22:32:44.204Z,71.57
2018-09-22T22:35:12.923Z,71.46
2018-09-22T22:37:41.518Z,71.45
2018-09-22T22:40:10.079Z,71.19
2018-09-22T22:42:38.868Z,72.02
2018-09-22T22:45:07.580Z,71.57
2018-09-22T22:47:36.255Z,71.90
2018-09-22T22:50:05.316Z,71.58
2018-09-22T22:52:33.810Z,72.13
2018-09-22T22:55:02.332Z,71.70
2018-09-22T22:57:31.053Z,72.37
2018-09-22T22:59:59.611Z,71.92
2018-09-22T23:02:28.298Z,72.02
2018-09-22T23:04:56.914Z,72.47
2018-09-22T23:07:25.472Z,72.35
2018-09-22T23:09:53.993Z,72.32
2018-09-22T23:12:23.017Z,72.30
2018-09-22T23:14:51.711Z,72.47
2018-09-22T23:17:20.397Z,72.29
2018-09-22T23:19:48.998Z,72.10
2018-09-22T23:22:17.529Z,72.23
2018-09-22T23:24:46.212Z,72.01
2018-09-22T23:27:15.875Z,72.26
2018-09-22T23:29:44.623Z,71.95
2018-09-22T23:32:14.008Z,71.84
2018-09-22T23:34:42.777Z,72.09
2018-09-22T23:37:11.357Z,71.97
2018-09-22T23:39:40.869Z,72.01
2018-09-22T23:42:09.527Z,71.96
2018-09-22T23:44:39.105Z,71.96
2018-09-22T23:47:07.692Z,72.80
2018-09-22T23:49:37.352Z,72.41
2018-09-22T23:52:05.908Z,72.49
2018-09-22T23:54:34.610Z,72.37
2018-09-22T23:57:03.233Z,72.73
2018-09-22T23:59:31.908Z,72.77
